sensor_id;sensor_type;location;lat;lon;timestamp;P1;durP1;ratioP1;P2;durP2;ratioP2
18102;SDS011;9178;51.120;6.192;2022-08-21T00:02:13;6.80;;;4.00;;
18102;SDS011;9178;51.120;6.192;2022-08-21T00:04:41;6.00;;;4.00;;
18102;SDS011;9178;51.120;6.192;2022-08-21T00:07:08;7.33;;;4.03;;
18102;SDS011;9178;51.120;6.192;2022-08-21T00:09:35;6.47;;;4.37;;
18102;SDS011;9178;51.120;6.192;2022-08-21T00:12:03;6.60;;;4.47;;
18102;SDS011;9178;51.120;6.192;2022-08-21T00:14:38;6.50;;;4.53;;
18102;SDS011;9178;51.120;6.192;2022-08-21T00:17:15;6.83;;;3.90;;
18102;SDS011;9178;51.120;6.192;2022-08-21T00:19:44;7.97;;;4.40;;
18102;SDS011;9178;51.120;6.192;2022-08-21T00:22:11;7.67;;;4.40;;
18102;SDS011;9178;51.120;6.192;2022-08-21T00:24:41;5.30;;;4.10;;
18102;SDS011;9178;51.120;6.192;2022-08-21T00:27:08;7.23;;;4.70;;
18102;SDS011;9178;51.120;6.192;2022-08-21T00:29:35;5.70;;;4.07;;
18102;SDS011;9178;51.120;6.192;2022-08-21T00:32:03;7.03;;;3.90;;
18102;SDS011;9178;51.120;6.192;2022-08-21T00:34:32;5.93;;;4.43;;
18102;SDS011;9178;51.120;6.192;2022-08-21T00:36:59;5.77;;;4.23;;
18102;SDS011;9178;51.120;6.192;2022-08-21T00:39:26;7.47;;;4.93;;
18102;SDS011;9178;51.120;6.192;2022-08-21T00:41:55;6.20;;;4.60;;
18102;SDS011;9178;51.120;6.192;2022-08-21T00:44:22;10.30;;;5.07;;
18102;SDS011;9178;51.120;6.192;2022-08-21T00:46:49;5.90;;;4.50;;
18102;SDS011;9178;51.120;6.192;2022-08-21T00:49:25;5.97;;;4.17;;
18102;SDS011;9178;51.120;6.192;2022-08-21T00:51:53;4.63;;;4.23;;
18102;SDS011;9178;51.120;6.192;2022-08-21T00:54:35;9.97;;;4.00;;
18102;SDS011;9178;51.120;6.192;2022-08-21T00:57:06;5.83;;;4.57;;
18102;SDS011;9178;51.120;6.192;2022-08-21T00:59:40;8.00;;;4.90;;
18102;SDS011;9178;51.120;6.192;2022-08-21T01:02:21;6.17;;;4.80;;
18102;SDS011;9178;51.120;6.192;2022-08-21T01:04:54;8.57;;;5.27;;
18102;SDS011;9178;51.120;6.192;2022-08-21T01:07:21;10.40;;;4.80;;
18102;SDS011;9178;51.120;6.192;2022-08-21T01:09:48;6.73;;;4.60;;
18102;SDS011;9178;51.120;6.192;2022-08-21T01:12:16;7.03;;;5.50;;
18102;SDS011;9178;51.120;6.192;2022-08-21T01:14:43;7.53;;;5.20;;
18102;SDS011;9178;51.120;6.192;2022-08-21T01:17:11;5.60;;;4.97;;
18102;SDS011;9178;51.120;6.192;2022-08-21T01:19:40;10.67;;;5.40;;
18102;SDS011;9178;51.120;6.192;2022-08-21T01:22:09;7.27;;;5.30;;
18102;SDS011;9178;51.120;6.192;2022-08-21T01:24:36;10.40;;;5.77;;
18102;SDS011;9178;51.120;6.192;2022-08-21T01:27:03;8.57;;;5.57;;
18102;SDS011;9178;51.120;6.192;2022-08-21T01:29:32;7.43;;;5.70;;
18102;SDS011;9178;51.120;6.192;2022-08-21T01:32:05;8.40;;;5.63;;
18102;SDS011;9178;51.120;6.192;2022-08-21T01:34:38;8.70;;;6.30;;
18102;SDS011;9178;51.120;6.192;2022-08-21T01:37:10;10.57;;;6.13;;
18102;SDS011;9178;51.120;6.192;2022-08-21T01:39:38;10.17;;;6.43;;
18102;SDS011;9178;51.120;6.192;2022-08-21T01:42:07;7.10;;;5.27;;
18102;SDS011;9178;51.120;6.192;2022-08-21T01:44:34;11.00;;;6.10;;
18102;SDS011;9178;51.120;6.192;2022-08-21T01:47:06;10.33;;;7.57;;
18102;SDS011;9178;51.120;6.192;2022-08-21T01:49:35;12.43;;;6.83;;
18102;SDS011;9178;51.120;6.192;2022-08-21T01:52:03;13.60;;;6.77;;
18102;SDS011;9178;51.120;6.192;2022-08-21T01:54:31;6.67;;;5.67;;
18102;SDS011;9178;51.120;6.192;2022-08-21T01:56:58;9.57;;;7.00;;
18102;SDS011;9178;51.120;6.192;2022-08-21T01:59:26;12.67;;;6.30;;
18102;SDS011;9178;51.120;6.192;2022-08-21T02:01:54;11.57;;;6.27;;
18102;SDS011;9178;51.120;6.192;2022-08-21T02:04:21;8.47;;;5.77;;
18102;SDS011;9178;51.120;6.192;2022-08-21T02:06:49;9.53;;;6.37;;
18102;SDS011;9178;51.120;6.192;2022-08-21T02:09:16;9.33;;;6.93;;
18102;SDS011;9178;51.120;6.192;2022-08-21T02:11:45;9.20;;;6.10;;
18102;SDS011;9178;51.120;6.192;2022-08-21T02:14:12;9.03;;;7.37;;
18102;SDS011;9178;51.120;6.192;2022-08-21T02:16:40;7.87;;;6.87;;
18102;SDS011;9178;51.120;6.192;2022-08-21T02:19:08;11.40;;;8.17;;
18102;SDS011;9178;51.120;6.192;2022-08-21T02:21:36;11.67;;;7.80;;
18102;SDS011;9178;51.120;6.192;2022-08-21T02:24:03;10.40;;;7.83;;
18102;SDS011;9178;51.120;6.192;2022-08-21T02:26:30;11.30;;;7.70;;
18102;SDS011;9178;51.120;6.192;2022-08-21T02:28:59;13.57;;;7.93;;
18102;SDS011;9178;51.120;6.192;2022-08-21T02:31:26;8.70;;;7.43;;
18102;SDS011;9178;51.120;6.192;2022-08-21T02:33:54;8.70;;;6.40;;
18102;SDS011;9178;51.120;6.192;2022-08-21T02:36:20;8.27;;;7.10;;
18102;SDS011;9178;51.120;6.192;2022-08-21T02:38:47;9.73;;;6.63;;
18102;SDS011;9178;51.120;6.192;2022-08-21T02:41:18;8.40;;;6.50;;
18102;SDS011;9178;51.120;6.192;2022-08-21T02:43:46;8.83;;;6.67;;
18102;SDS011;9178;51.120;6.192;2022-08-21T02:46:15;9.73;;;6.67;;
18102;SDS011;9178;51.120;6.192;2022-08-21T02:48:44;8.73;;;6.60;;
18102;SDS011;9178;51.120;6.192;2022-08-21T02:51:13;8.40;;;6.33;;
18102;SDS011;9178;51.120;6.192;2022-08-21T02:53:42;9.97;;;6.33;;
18102;SDS011;9178;51.120;6.192;2022-08-21T02:56:12;7.13;;;5.67;;
18102;SDS011;9178;51.120;6.192;2022-08-21T02:58:42;8.37;;;6.60;;
18102;SDS011;9178;51.120;6.192;2022-08-21T03:01:10;7.37;;;6.27;;
18102;SDS011;9178;51.120;6.192;2022-08-21T03:03:41;7.93;;;6.87;;
18102;SDS011;9178;51.120;6.192;2022-08-21T03:06:10;9.40;;;7.00;;
18102;SDS011;9178;51.120;6.192;2022-08-21T03:08:37;7.73;;;6.93;;
18102;SDS011;9178;51.120;6.192;2022-08-21T03:11:05;11.23;;;6.43;;
18102;SDS011;9178;51.120;6.192;2022-08-21T03:13:32;8.33;;;7.30;;
18102;SDS011;9178;51.120;6.192;2022-08-21T03:15:59;8.47;;;7.47;;
18102;SDS011;9178;51.120;6.192;2022-08-21T03:18:26;8.43;;;7.40;;
18102;SDS011;9178;51.120;6.192;2022-08-21T03:20:54;9.20;;;7.13;;
18102;SDS011;9178;51.120;6.192;2022-08-21T03:23:21;10.77;;;7.37;;
18102;SDS011;9178;51.120;6.192;2022-08-21T03:25:48;9.33;;;7.40;;
18102;SDS011;9178;51.120;6.192;2022-08-21T03:28:19;9.17;;;7.60;;
18102;SDS011;9178;51.120;6.192;2022-08-21T03:30:47;11.07;;;6.83;;
18102;SDS011;9178;51.120;6.192;2022-08-21T03:33:17;11.83;;;6.93;;
18102;SDS011;9178;51.120;6.192;2022-08-21T03:35:45;9.60;;;7.10;;
18102;SDS011;9178;51.120;6.192;2022-08-21T03:38:17;8.37;;;6.77;;
18102;SDS011;9178;51.120;6.192;2022-08-21T03:40:44;9.80;;;7.30;;
18102;SDS011;9178;51.120;6.192;2022-08-21T03:43:11;10.77;;;7.33;;
18102;SDS011;9178;51.120;6.192;2022-08-21T03:45:38;11.37;;;7.10;;
18102;SDS011;9178;51.120;6.192;2022-08-21T03:48:06;12.50;;;8.27;;
18102;SDS011;9178;51.120;6.192;2022-08-21T03:50:35;11.53;;;7.83;;
18102;SDS011;9178;51.120;6.192;2022-08-21T03:53:04;9.20;;;7.50;;
18102;SDS011;9178;51.120;6.192;2022-08-21T03:55:32;10.23;;;7.30;;
18102;SDS011;9178;51.120;6.192;2022-08-21T03:57:59;11.43;;;7.00;;
18102;SDS011;9178;51.120;6.192;2022-08-21T04:00:26;11.67;;;6.63;;
18102;SDS011;9178;51.120;6.192;2022-08-21T04:02:53;10.57;;;7.30;;
18102;SDS011;9178;51.120;6.192;2022-08-21T04:05:20;11.60;;;6.57;;
18102;SDS011;9178;51.120;6.192;2022-08-21T04:07:53;11.77;;;6.27;;
18102;SDS011;9178;51.120;6.192;2022-08-21T04:10:21;11.90;;;6.60;;
18102;SDS011;9178;51.120;6.192;2022-08-21T04:12:51;10.20;;;6.50;;
18102;SDS011;9178;51.120;6.192;2022-08-21T04:15:18;11.77;;;6.40;;
18102;SDS011;9178;51.120;6.192;2022-08-21T04:17:46;8.57;;;6.03;;
18102;SDS011;9178;51.120;6.192;2022-08-21T04:20:13;10.47;;;5.87;;
18102;SDS011;9178;51.120;6.192;2022-08-21T04:22:40;7.93;;;5.63;;
18102;SDS011;9178;51.120;6.192;2022-08-21T04:25:07;11.00;;;5.93;;
18102;SDS011;9178;51.120;6.192;2022-08-21T04:27:34;9.03;;;5.67;;
18102;SDS011;9178;51.120;6.192;2022-08-21T04:30:02;8.97;;;5.60;;
18102;SDS011;9178;51.120;6.192;2022-08-21T04:32:29;9.00;;;5.10;;
18102;SDS011;9178;51.120;6.192;2022-08-21T04:34:59;7.37;;;5.40;;
18102;SDS011;9178;51.120;6.192;2022-08-21T04:37:29;8.27;;;5.00;;
18102;SDS011;9178;51.120;6.192;2022-08-21T04:39:55;10.30;;;5.60;;
18102;SDS011;9178;51.120;6.192;2022-08-21T04:42:23;6.97;;;5.13;;
18102;SDS011;9178;51.120;6.192;2022-08-21T04:44:51;9.77;;;5.20;;
18102;SDS011;9178;51.120;6.192;2022-08-21T04:47:19;7.47;;;4.90;;
18102;SDS011;9178;51.120;6.192;2022-08-21T04:49:46;11.07;;;4.80;;
18102;SDS011;9178;51.120;6.192;2022-08-21T04:52:13;8.17;;;4.90;;
18102;SDS011;9178;51.120;6.192;2022-08-21T04:54:43;10.37;;;4.97;;
18102;SDS011;9178;51.120;6.192;2022-08-21T04:57:11;8.97;;;5.30;;
18102;SDS011;9178;51.120;6.192;2022-08-21T04:59:42;8.80;;;5.00;;
18102;SDS011;9178;51.120;6.192;2022-08-21T05:02:12;8.27;;;5.07;;
18102;SDS011;9178;51.120;6.192;2022-08-21T05:04:43;7.67;;;5.07;;
18102;SDS011;9178;51.120;6.192;2022-08-21T05:07:15;8.43;;;4.57;;
18102;SDS011;9178;51.120;6.192;2022-08-21T05:09:45;8.67;;;4.57;;
18102;SDS011;9178;51.120;6.192;2022-08-21T05:12:12;7.87;;;5.03;;
18102;SDS011;9178;51.120;6.192;2022-08-21T05:14:39;6.53;;;4.47;;
18102;SDS011;9178;51.120;6.192;2022-08-21T05:17:07;8.57;;;4.43;;
18102;SDS011;9178;51.120;6.192;2022-08-21T05:19:34;7.80;;;4.67;;
18102;SDS011;9178;51.120;6.192;2022-08-21T05:22:02;7.07;;;4.27;;
18102;SDS011;9178;51.120;6.192;2022-08-21T05:24:29;6.37;;;4.43;;
18102;SDS011;9178;51.120;6.192;2022-08-21T05:26:57;9.83;;;4.90;;
18102;SDS011;9178;51.120;6.192;2022-08-21T05:29:24;6.47;;;3.93;;
18102;SDS011;9178;51.120;6.192;2022-08-21T05:31:51;6.60;;;4.43;;
18102;SDS011;9178;51.120;6.192;2022-08-21T05:34:18;8.23;;;4.23;;
18102;SDS011;9178;51.120;6.192;2022-08-21T05:36:47;8.20;;;4.50;;
18102;SDS011;9178;51.120;6.192;2022-08-21T05:39:15;6.63;;;4.20;;
18102;SDS011;9178;51.120;6.192;2022-08-21T05:41:42;7.13;;;3.80;;
18102;SDS011;9178;51.120;6.192;2022-08-21T05:44:09;5.70;;;3.80;;
18102;SDS011;9178;51.120;6.192;2022-08-21T05:46:36;10.93;;;3.93;;
18102;SDS011;9178;51.120;6.192;2022-08-21T05:49:03;6.37;;;3.60;;
18102;SDS011;9178;51.120;6.192;2022-08-21T05:51:29;7.77;;;3.77;;
18102;SDS011;9178;51.120;6.192;2022-08-21T05:53:56;5.30;;;3.43;;
18102;SDS011;9178;51.120;6.192;2022-08-21T05:56:24;6.10;;;3.33;;
18102;SDS011;9178;51.120;6.192;2022-08-21T05:58:51;8.37;;;3.17;;
18102;SDS011;9178;51.120;6.192;2022-08-21T06:01:18;7.30;;;3.07;;
18102;SDS011;9178;51.120;6.192;2022-08-21T06:03:45;8.23;;;3.33;;
18102;SDS011;9178;51.120;6.192;2022-08-21T06:06:12;8.17;;;3.30;;
18102;SDS011;9178;51.120;6.192;2022-08-21T06:08:38;8.27;;;3.73;;
18102;SDS011;9178;51.120;6.192;2022-08-21T06:11:05;6.17;;;3.03;;
18102;SDS011;9178;51.120;6.192;2022-08-21T06:13:35;6.30;;;3.13;;
18102;SDS011;9178;51.120;6.192;2022-08-21T06:16:03;5.00;;;3.00;;
18102;SDS011;9178;51.120;6.192;2022-08-21T06:18:32;4.67;;;2.67;;
18102;SDS011;9178;51.120;6.192;2022-08-21T06:20:59;8.57;;;2.93;;
18102;SDS011;9178;51.120;6.192;2022-08-21T06:23:26;6.80;;;2.53;;
18102;SDS011;9178;51.120;6.192;2022-08-21T06:25:53;6.97;;;2.83;;
18102;SDS011;9178;51.120;6.192;2022-08-21T06:28:20;7.63;;;3.10;;
18102;SDS011;9178;51.120;6.192;2022-08-21T06:30:48;7.07;;;2.90;;
18102;SDS011;9178;51.120;6.192;2022-08-21T06:33:15;7.57;;;2.90;;
18102;SDS011;9178;51.120;6.192;2022-08-21T06:35:41;7.53;;;2.90;;
18102;SDS011;9178;51.120;6.192;2022-08-21T06:38:08;6.20;;;2.70;;
18102;SDS011;9178;51.120;6.192;2022-08-21T06:40:35;9.00;;;2.80;;
18102;SDS011;9178;51.120;6.192;2022-08-21T06:43:06;9.00;;;2.70;;
18102;SDS011;9178;51.120;6.192;2022-08-21T06:45:35;8.53;;;2.80;;
18102;SDS011;9178;51.120;6.192;2022-08-21T06:48:04;3.63;;;2.20;;
18102;SDS011;9178;51.120;6.192;2022-08-21T06:50:32;8.00;;;2.33;;
18102;SDS011;9178;51.120;6.192;2022-08-21T06:53:00;6.30;;;2.30;;
18102;SDS011;9178;51.120;6.192;2022-08-21T06:55:28;6.40;;;2.50;;
18102;SDS011;9178;51.120;6.192;2022-08-21T06:57:55;6.10;;;2.13;;
18102;SDS011;9178;51.120;6.192;2022-08-21T07:00:22;10.63;;;2.40;;
18102;SDS011;9178;51.120;6.192;2022-08-21T07:02:49;8.47;;;2.43;;
18102;SDS011;9178;51.120;6.192;2022-08-21T07:05:17;5.60;;;2.23;;
18102;SDS011;9178;51.120;6.192;2022-08-21T07:07:44;6.60;;;1.93;;
18102;SDS011;9178;51.120;6.192;2022-08-21T07:10:12;7.07;;;2.10;;
18102;SDS011;9178;51.120;6.192;2022-08-21T07:12:39;5.37;;;1.97;;
18102;SDS011;9178;51.120;6.192;2022-08-21T07:15:07;5.53;;;2.10;;
18102;SDS011;9178;51.120;6.192;2022-08-21T07:17:34;4.53;;;1.70;;
18102;SDS011;9178;51.120;6.192;2022-08-21T07:20:01;7.80;;;2.27;;
18102;SDS011;9178;51.120;6.192;2022-08-21T07:22:30;6.83;;;2.03;;
18102;SDS011;9178;51.120;6.192;2022-08-21T07:24:57;6.22;;;2.00;;
18102;SDS011;9178;51.120;6.192;2022-08-21T07:27:24;6.28;;;2.00;;
18102;SDS011;9178;51.120;6.192;2022-08-21T07:30:00;6.63;;;1.80;;
18102;SDS011;9178;51.120;6.192;2022-08-21T07:32:27;6.13;;;1.73;;
18102;SDS011;9178;51.120;6.192;2022-08-21T07:34:56;5.15;;;1.67;;
18102;SDS011;9178;51.120;6.192;2022-08-21T07:37:35;5.55;;;1.63;;
18102;SDS011;9178;51.120;6.192;2022-08-21T07:40:03;5.25;;;1.50;;
18102;SDS011;9178;51.120;6.192;2022-08-21T07:42:31;3.38;;;1.42;;
18102;SDS011;9178;51.120;6.192;2022-08-21T07:44:58;5.35;;;1.40;;
18102;SDS011;9178;51.120;6.192;2022-08-21T07:47:25;3.83;;;1.60;;
18102;SDS011;9178;51.120;6.192;2022-08-21T07:49:52;3.60;;;1.38;;
18102;SDS011;9178;51.120;6.192;2022-08-21T07:52:19;5.53;;;1.58;;
18102;SDS011;9178;51.120;6.192;2022-08-21T07:54:47;3.75;;;1.35;;
18102;SDS011;9178;51.120;6.192;2022-08-21T07:57:14;4.35;;;1.58;;
18102;SDS011;9178;51.120;6.192;2022-08-21T07:59:41;4.43;;;1.30;;
18102;SDS011;9178;51.120;6.192;2022-08-21T08:02:07;3.58;;;1.50;;
18102;SDS011;9178;51.120;6.192;2022-08-21T08:04:47;3.90;;;1.27;;
18102;SDS011;9178;51.120;6.192;2022-08-21T08:07:13;3.78;;;1.48;;
18102;SDS011;9178;51.120;6.192;2022-08-21T08:09:40;4.55;;;1.30;;
18102;SDS011;9178;51.120;6.192;2022-08-21T08:12:08;4.00;;;1.20;;
18102;SDS011;9178;51.120;6.192;2022-08-21T08:14:35;3.17;;;1.42;;
18102;SDS011;9178;51.120;6.192;2022-08-21T08:17:02;7.03;;;2.00;;
18102;SDS011;9178;51.120;6.192;2022-08-21T08:19:29;4.72;;;1.58;;
18102;SDS011;9178;51.120;6.192;2022-08-21T08:21:56;3.10;;;1.35;;
18102;SDS011;9178;51.120;6.192;2022-08-21T08:24:23;3.05;;;1.00;;
18102;SDS011;9178;51.120;6.192;2022-08-21T08:26:49;3.63;;;1.20;;
18102;SDS011;9178;51.120;6.192;2022-08-21T08:29:20;5.07;;;1.55;;
18102;SDS011;9178;51.120;6.192;2022-08-21T08:31:47;3.03;;;1.00;;
18102;SDS011;9178;51.120;6.192;2022-08-21T08:34:14;2.30;;;0.82;;
18102;SDS011;9178;51.120;6.192;2022-08-21T08:36:41;2.90;;;0.93;;
18102;SDS011;9178;51.120;6.192;2022-08-21T08:39:07;4.88;;;1.50;;
18102;SDS011;9178;51.120;6.192;2022-08-21T08:41:34;3.10;;;0.98;;
18102;SDS011;9178;51.120;6.192;2022-08-21T08:44:03;2.65;;;0.90;;
18102;SDS011;9178;51.120;6.192;2022-08-21T08:46:35;1.95;;;0.80;;
18102;SDS011;9178;51.120;6.192;2022-08-21T08:49:06;3.83;;;1.25;;
18102;SDS011;9178;51.120;6.192;2022-08-21T08:51:39;0.93;;;0.88;;
18102;SDS011;9178;51.120;6.192;2022-08-21T08:54:13;1.60;;;0.75;;
18102;SDS011;9178;51.120;6.192;2022-08-21T08:56:44;3.08;;;0.73;;
18102;SDS011;9178;51.120;6.192;2022-08-21T08:59:13;3.92;;;1.13;;
18102;SDS011;9178;51.120;6.192;2022-08-21T09:01:44;2.00;;;0.90;;
18102;SDS011;9178;51.120;6.192;2022-08-21T09:04:11;4.35;;;1.10;;
18102;SDS011;9178;51.120;6.192;2022-08-21T09:06:44;3.13;;;0.88;;
18102;SDS011;9178;51.120;6.192;2022-08-21T09:09:23;2.70;;;0.80;;
18102;SDS011;9178;51.120;6.192;2022-08-21T09:11:57;5.70;;;1.00;;
18102;SDS011;9178;51.120;6.192;2022-08-21T09:14:36;3.03;;;0.88;;
18102;SDS011;9178;51.120;6.192;2022-08-21T09:17:18;3.30;;;0.90;;
18102;SDS011;9178;51.120;6.192;2022-08-21T09:19:57;3.45;;;0.80;;
18102;SDS011;9178;51.120;6.192;2022-08-21T09:22:36;4.78;;;0.90;;
18102;SDS011;9178;51.120;6.192;2022-08-21T09:25:12;3.80;;;1.05;;
18102;SDS011;9178;51.120;6.192;2022-08-21T09:27:46;2.85;;;0.90;;
18102;SDS011;9178;51.120;6.192;2022-08-21T09:30:13;2.05;;;0.90;;
18102;SDS011;9178;51.120;6.192;2022-08-21T09:32:42;2.45;;;0.80;;
18102;SDS011;9178;51.120;6.192;2022-08-21T09:35:15;3.67;;;1.27;;
18102;SDS011;9178;51.120;6.192;2022-08-21T09:37:46;2.05;;;0.95;;
18102;SDS011;9178;51.120;6.192;2022-08-21T09:43:06;3.35;;;1.00;;
18102;SDS011;9178;51.120;6.192;2022-08-21T09:45:42;2.85;;;1.02;;
18102;SDS011;9178;51.120;6.192;2022-08-21T09:48:12;3.42;;;1.00;;
18102;SDS011;9178;51.120;6.192;2022-08-21T09:53:19;2.05;;;0.90;;
18102;SDS011;9178;51.120;6.192;2022-08-21T09:55:49;1.83;;;0.80;;
18102;SDS011;9178;51.120;6.192;2022-08-21T09:58:41;4.80;;;1.10;;
18102;SDS011;9178;51.120;6.192;2022-08-21T10:01:12;3.47;;;1.05;;
18102;SDS011;9178;51.120;6.192;2022-08-21T10:03:42;2.28;;;0.80;;
18102;SDS011;9178;51.120;6.192;2022-08-21T10:06:09;1.92;;;0.77;;
18102;SDS011;9178;51.120;6.192;2022-08-21T10:08:46;3.15;;;1.00;;
18102;SDS011;9178;51.120;6.192;2022-08-21T10:11:14;4.22;;;0.93;;
18102;SDS011;9178;51.120;6.192;2022-08-21T10:13:45;1.58;;;0.82;;
18102;SDS011;9178;51.120;6.192;2022-08-21T10:16:22;4.43;;;1.08;;
18102;SDS011;9178;51.120;6.192;2022-08-21T10:19:04;2.03;;;0.90;;
18102;SDS011;9178;51.120;6.192;2022-08-21T10:21:42;2.00;;;0.77;;
18102;SDS011;9178;51.120;6.192;2022-08-21T10:24:18;4.15;;;1.10;;
18102;SDS011;9178;51.120;6.192;2022-08-21T10:26:56;2.38;;;1.23;;
18102;SDS011;9178;51.120;6.192;2022-08-21T10:29:37;3.33;;;0.90;;
18102;SDS011;9178;51.120;6.192;2022-08-21T10:32:11;1.77;;;0.90;;
18102;SDS011;9178;51.120;6.192;2022-08-21T10:34:54;5.03;;;1.27;;
18102;SDS011;9178;51.120;6.192;2022-08-21T10:37:38;4.75;;;1.00;;
18102;SDS011;9178;51.120;6.192;2022-08-21T10:40:21;2.53;;;1.10;;
18102;SDS011;9178;51.120;6.192;2022-08-21T10:42:56;2.78;;;0.90;;
18102;SDS011;9178;51.120;6.192;2022-08-21T10:45:32;7.10;;;1.10;;
18102;SDS011;9178;51.120;6.192;2022-08-21T10:48:22;2.90;;;0.95;;
18102;SDS011;9178;51.120;6.192;2022-08-21T10:50:55;2.97;;;1.00;;
18102;SDS011;9178;51.120;6.192;2022-08-21T10:53:32;2.33;;;0.95;;
18102;SDS011;9178;51.120;6.192;2022-08-21T10:56:11;3.10;;;1.08;;
18102;SDS011;9178;51.120;6.192;2022-08-21T10:58:45;4.07;;;1.30;;
18102;SDS011;9178;51.120;6.192;2022-08-21T11:01:33;3.95;;;1.00;;
18102;SDS011;9178;51.120;6.192;2022-08-21T11:04:09;2.30;;;1.10;;
18102;SDS011;9178;51.120;6.192;2022-08-21T11:06:44;3.70;;;1.38;;
18102;SDS011;9178;51.120;6.192;2022-08-21T11:09:14;4.78;;;1.20;;
18102;SDS011;9178;51.120;6.192;2022-08-21T11:11:44;1.83;;;1.00;;
18102;SDS011;9178;51.120;6.192;2022-08-21T11:14:25;4.03;;;1.58;;
18102;SDS011;9178;51.120;6.192;2022-08-21T11:17:05;3.38;;;1.02;;
18102;SDS011;9178;51.120;6.192;2022-08-21T11:19:35;2.95;;;1.20;;
18102;SDS011;9178;51.120;6.192;2022-08-21T11:22:11;3.70;;;1.10;;
18102;SDS011;9178;51.120;6.192;2022-08-21T11:24:44;3.30;;;1.25;;
18102;SDS011;9178;51.120;6.192;2022-08-21T11:27:18;2.58;;;1.10;;
18102;SDS011;9178;51.120;6.192;2022-08-21T11:29:49;3.63;;;0.93;;
18102;SDS011;9178;51.120;6.192;2022-08-21T11:32:29;4.30;;;1.20;;
18102;SDS011;9178;51.120;6.192;2022-08-21T11:35:14;1.80;;;0.82;;
18102;SDS011;9178;51.120;6.192;2022-08-21T11:37:53;2.70;;;1.00;;
18102;SDS011;9178;51.120;6.192;2022-08-21T11:40:33;3.58;;;1.25;;
18102;SDS011;9178;51.120;6.192;2022-08-21T11:43:10;3.80;;;1.05;;
18102;SDS011;9178;51.120;6.192;2022-08-21T11:45:47;5.63;;;1.33;;
18102;SDS011;9178;51.120;6.192;2022-08-21T11:48:22;3.17;;;1.00;;
18102;SDS011;9178;51.120;6.192;2022-08-21T11:50:59;3.75;;;1.10;;
18102;SDS011;9178;51.120;6.192;2022-08-21T11:53:32;4.88;;;1.08;;
18102;SDS011;9178;51.120;6.192;2022-08-21T11:56:05;2.90;;;1.13;;
18102;SDS011;9178;51.120;6.192;2022-08-21T11:58:36;2.80;;;1.10;;
18102;SDS011;9178;51.120;6.192;2022-08-21T12:01:08;3.42;;;1.00;;
18102;SDS011;9178;51.120;6.192;2022-08-21T12:03:37;2.30;;;1.00;;
18102;SDS011;9178;51.120;6.192;2022-08-21T12:06:07;6.13;;;1.20;;
18102;SDS011;9178;51.120;6.192;2022-08-21T12:08:38;3.50;;;1.00;;
18102;SDS011;9178;51.120;6.192;2022-08-21T12:11:07;3.00;;;0.90;;
18102;SDS011;9178;51.120;6.192;2022-08-21T12:13:36;1.35;;;0.68;;
18102;SDS011;9178;51.120;6.192;2022-08-21T12:16:05;23.45;;;17.88;;
18102;SDS011;9178;51.120;6.192;2022-08-21T12:18:33;3.15;;;1.50;;
18102;SDS011;9178;51.120;6.192;2022-08-21T12:21:04;2.42;;;0.90;;
18102;SDS011;9178;51.120;6.192;2022-08-21T12:23:46;3.42;;;1.10;;
18102;SDS011;9178;51.120;6.192;2022-08-21T12:26:25;3.20;;;1.08;;
18102;SDS011;9178;51.120;6.192;2022-08-21T12:31:50;1.20;;;0.80;;
18102;SDS011;9178;51.120;6.192;2022-08-21T12:34:19;1.98;;;0.95;;
18102;SDS011;9178;51.120;6.192;2022-08-21T12:36:49;3.00;;;1.10;;
18102;SDS011;9178;51.120;6.192;2022-08-21T12:39:24;2.13;;;0.90;;
18102;SDS011;9178;51.120;6.192;2022-08-21T12:41:55;2.25;;;0.77;;
18102;SDS011;9178;51.120;6.192;2022-08-21T12:44:27;2.33;;;1.10;;
18102;SDS011;9178;51.120;6.192;2022-08-21T12:47:00;3.75;;;0.98;;
18102;SDS011;9178;51.120;6.192;2022-08-21T12:49:30;5.38;;;1.10;;
18102;SDS011;9178;51.120;6.192;2022-08-21T12:52:01;5.25;;;1.00;;
18102;SDS011;9178;51.120;6.192;2022-08-21T12:54:37;3.78;;;0.90;;
18102;SDS011;9178;51.120;6.192;2022-08-21T12:57:06;1.60;;;0.90;;
18102;SDS011;9178;51.120;6.192;2022-08-21T12:59:36;2.60;;;1.08;;
18102;SDS011;9178;51.120;6.192;2022-08-21T13:02:06;5.03;;;0.95;;
18102;SDS011;9178;51.120;6.192;2022-08-21T13:04:42;3.22;;;1.10;;
18102;SDS011;9178;51.120;6.192;2022-08-21T13:07:11;3.20;;;1.23;;
18102;SDS011;9178;51.120;6.192;2022-08-21T13:09:41;2.05;;;0.80;;
18102;SDS011;9178;51.120;6.192;2022-08-21T13:12:25;2.05;;;1.02;;
18102;SDS011;9178;51.120;6.192;2022-08-21T13:14:55;2.53;;;0.80;;
18102;SDS011;9178;51.120;6.192;2022-08-21T13:17:24;2.78;;;0.90;;
18102;SDS011;9178;51.120;6.192;2022-08-21T13:19:54;1.25;;;0.75;;
18102;SDS011;9178;51.120;6.192;2022-08-21T13:22:23;2.70;;;0.90;;
18102;SDS011;9178;51.120;6.192;2022-08-21T13:24:52;2.55;;;1.05;;
18102;SDS011;9178;51.120;6.192;2022-08-21T13:27:22;2.92;;;0.85;;
18102;SDS011;9178;51.120;6.192;2022-08-21T13:30:01;1.73;;;0.90;;
18102;SDS011;9178;51.120;6.192;2022-08-21T13:32:30;3.00;;;0.88;;
18102;SDS011;9178;51.120;6.192;2022-08-21T13:35:06;4.10;;;1.15;;
18102;SDS011;9178;51.120;6.192;2022-08-21T13:37:37;1.48;;;0.68;;
18102;SDS011;9178;51.120;6.192;2022-08-21T13:40:09;2.25;;;0.70;;
18102;SDS011;9178;51.120;6.192;2022-08-21T13:42:39;2.45;;;0.80;;
18102;SDS011;9178;51.120;6.192;2022-08-21T13:45:11;2.05;;;0.70;;
18102;SDS011;9178;51.120;6.192;2022-08-21T13:47:39;3.55;;;0.80;;
18102;SDS011;9178;51.120;6.192;2022-08-21T13:50:07;1.27;;;0.90;;
18102;SDS011;9178;51.120;6.192;2022-08-21T13:52:44;1.55;;;0.85;;
18102;SDS011;9178;51.120;6.192;2022-08-21T13:55:17;2.03;;;0.82;;
18102;SDS011;9178;51.120;6.192;2022-08-21T13:57:46;1.27;;;0.73;;
18102;SDS011;9178;51.120;6.192;2022-08-21T14:00:25;7.22;;;1.13;;
18102;SDS011;9178;51.120;6.192;2022-08-21T14:02:53;4.15;;;1.02;;
18102;SDS011;9178;51.120;6.192;2022-08-21T14:05:28;4.47;;;1.13;;
18102;SDS011;9178;51.120;6.192;2022-08-21T14:07:58;2.28;;;0.90;;
18102;SDS011;9178;51.120;6.192;2022-08-21T14:10:34;2.53;;;0.98;;
18102;SDS011;9178;51.120;6.192;2022-08-21T14:13:07;1.58;;;0.65;;
18102;SDS011;9178;51.120;6.192;2022-08-21T14:15:34;4.00;;;0.80;;
18102;SDS011;9178;51.120;6.192;2022-08-21T14:18:08;2.95;;;1.00;;
18102;SDS011;9178;51.120;6.192;2022-08-21T14:20:40;1.42;;;0.70;;
18102;SDS011;9178;51.120;6.192;2022-08-21T14:23:07;2.53;;;0.93;;
18102;SDS011;9178;51.120;6.192;2022-08-21T14:25:39;1.88;;;1.00;;
18102;SDS011;9178;51.120;6.192;2022-08-21T14:28:11;2.50;;;0.80;;
18102;SDS011;9178;51.120;6.192;2022-08-21T14:30:44;2.90;;;0.98;;
18102;SDS011;9178;51.120;6.192;2022-08-21T14:33:24;3.35;;;1.13;;
18102;SDS011;9178;51.120;6.192;2022-08-21T14:35:53;1.63;;;0.70;;
18102;SDS011;9178;51.120;6.192;2022-08-21T14:38:23;2.92;;;1.20;;
18102;SDS011;9178;51.120;6.192;2022-08-21T14:40:54;3.33;;;1.08;;
18102;SDS011;9178;51.120;6.192;2022-08-21T14:43:24;1.60;;;1.10;;
18102;SDS011;9178;51.120;6.192;2022-08-21T14:45:53;3.95;;;1.25;;
18102;SDS011;9178;51.120;6.192;2022-08-21T14:48:20;1.38;;;1.00;;
18102;SDS011;9178;51.120;6.192;2022-08-21T14:50:47;1.90;;;0.90;;
18102;SDS011;9178;51.120;6.192;2022-08-21T14:53:13;2.20;;;1.17;;
18102;SDS011;9178;51.120;6.192;2022-08-21T14:55:41;3.42;;;1.00;;
18102;SDS011;9178;51.120;6.192;2022-08-21T14:58:29;3.75;;;0.75;;
18102;SDS011;9178;51.120;6.192;2022-08-21T15:00:56;3.17;;;1.10;;
18102;SDS011;9178;51.120;6.192;2022-08-21T15:03:24;0.90;;;0.60;;
18102;SDS011;9178;51.120;6.192;2022-08-21T15:05:51;2.83;;;1.02;;
18102;SDS011;9178;51.120;6.192;2022-08-21T15:08:18;3.35;;;1.27;;
18102;SDS011;9178;51.120;6.192;2022-08-21T15:10:45;4.30;;;0.88;;
18102;SDS011;9178;51.120;6.192;2022-08-21T15:13:12;3.45;;;1.02;;
18102;SDS011;9178;51.120;6.192;2022-08-21T15:15:41;1.90;;;0.65;;
18102;SDS011;9178;51.120;6.192;2022-08-21T15:18:10;3.13;;;1.40;;
18102;SDS011;9178;51.120;6.192;2022-08-21T15:20:37;2.63;;;0.88;;
18102;SDS011;9178;51.120;6.192;2022-08-21T15:23:04;3.28;;;1.13;;
18102;SDS011;9178;51.120;6.192;2022-08-21T15:25:32;3.47;;;0.95;;
18102;SDS011;9178;51.120;6.192;2022-08-21T15:27:59;1.90;;;0.90;;